WXM80 ListenWXM80 Stop

You find our weather info also at:

UK Metoffice

WeatherCloud

Weather Underground

Northeastern Weather Network

AWEKAS

Citizen Weather Observer Program (CWOP)

HAMweather, WeatherForYou, PWS Weather


Weather Underground History page Text

Daily Summary for March 30, 2016 Units:  English    Metric   Both
« Previous Day
Next Day »
Daily Weekly Monthly Yearly Custom
  High: Low: Average:
Temperature: 56.8 °F 35.4 °F 45 °F
Dew Point: 38.6 °F 20.3 °F 28 °F
Humidity: 79 % 30 % 53 %
Wind Speed: 11.4 mph 0.0 mph 3.6 mph
Wind Gust: 17.3 mph - -
Wind:- - SW
Pressure: 30.36 in 30.12 in -
Precipitation: 0.00 in    
Historical Graphs
 
 
Tabular Data for March 30, 2016
Time Temperature Dew Point Pressure Wind Wind Speed Wind Gust Humidity Rainfall Rate (Hourly)
00:01 41.4 °F 22.1 °F 30.20 in NW 4.2 mph 6.9 mph 46 % 0.00 in
00:06 41.4 °F 22.7 °F 30.20 in NNW 5.7 mph 11.5 mph 47 % 0.00 in
00:11 41.2 °F 21.4 °F 30.21 in North 4.7 mph 8.1 mph 45 % 0.00 in
00:17 41.1 °F 21.9 °F 30.21 in North 5.0 mph 7.0 mph 46 % 0.00 in
00:22 41.0 °F 21.8 °F 30.21 in NE 6.0 mph 11.5 mph 46 % 0.00 in
00:27 40.9 °F 21.2 °F 30.21 in North 4.8 mph 8.1 mph 45 % 0.00 in
00:32 40.7 °F 21.5 °F 30.21 in NNE 5.8 mph 8.1 mph 46 % 0.00 in
00:37 40.6 °F 21.4 °F 30.20 in NNW 6.8 mph 11.5 mph 46 % 0.00 in
00:42 40.5 °F 21.8 °F 30.21 in NNE 6.1 mph 10.4 mph 47 % 0.00 in
00:47 40.4 °F 21.7 °F 30.21 in NNE 4.8 mph 7.0 mph 47 % 0.00 in
00:52 40.2 °F 21.0 °F 30.20 in North 3.9 mph 9.0 mph 46 % 0.00 in
00:57 40.1 °F 22.4 °F 30.20 in NNE 5.9 mph 7.0 mph 49 % 0.00 in
01:02 40.0 °F 22.4 °F 30.20 in NNE 9.3 mph 10.0 mph 49 % 0.00 in
01:08 40.0 °F 21.9 °F 30.21 in NNE 5.7 mph 11.5 mph 48 % 0.00 in
01:13 39.9 °F 21.8 °F 30.21 in North 8.9 mph 12.7 mph 48 % 0.00 in
01:18 39.8 °F 20.7 °F 30.21 in North 5.1 mph 10.4 mph 46 % 0.00 in
01:23 39.8 °F 21.2 °F 30.21 in NNW 5.0 mph 8.1 mph 47 % 0.00 in
01:28 39.7 °F 21.6 °F 30.22 in NNE 2.0 mph 3.5 mph 48 % 0.00 in
01:38 39.6 °F 21.5 °F 30.23 in NNW 5.1 mph 8.0 mph 48 % 0.00 in
01:43 39.5 °F 21.4 °F 30.23 in NNE 2.9 mph 4.0 mph 48 % 0.00 in
01:48 39.4 °F 21.8 °F 30.23 in NNW 3.4 mph 4.0 mph 49 % 0.00 in
01:59 39.3 °F 21.2 °F 30.24 in NNW 1.0 mph 3.0 mph 48 % 0.00 in
02:04 39.2 °F 21.1 °F 30.24 in NNW 3.3 mph 6.9 mph 48 % 0.00 in
02:09 39.2 °F 21.6 °F 30.24 in NNW 4.0 mph 7.0 mph 49 % 0.00 in
02:14 39.1 °F 21.5 °F 30.26 in NW 3.4 mph 5.8 mph 49 % 0.00 in
02:19 39.0 °F 21.9 °F 30.25 in NNW 0.2 mph 2.3 mph 50 % 0.00 in
02:24 38.9 °F 21.3 °F 30.26 in NW 2.5 mph 4.0 mph 49 % 0.00 in
02:29 38.8 °F 20.3 °F 30.26 in WNW 1.6 mph 4.6 mph 47 % 0.00 in
02:34 38.8 °F 20.8 °F 30.26 in WNW 0.1 mph 1.2 mph 48 % 0.00 in
02:39 38.7 °F 20.7 °F 30.26 in NW 1.3 mph 3.5 mph 48 % 0.00 in
02:44 38.6 °F 20.6 °F 30.26 in WNW 0.6 mph 2.3 mph 48 % 0.00 in
02:50 38.5 °F 20.5 °F 30.26 in WNW 0.5 mph 3.5 mph 48 % 0.00 in
02:55 38.4 °F 20.9 °F 30.26 in WNW 0.5 mph 1.0 mph 49 % 0.00 in
03:00 38.1 °F 20.6 °F 30.27 in WNW 0.2 mph 3.5 mph 49 % 0.00 in
03:05 37.9 °F 20.4 °F 30.27 in WNW 1.0 mph 3.0 mph 49 % 0.00 in
03:10 37.8 °F 21.3 °F 30.27 in WNW 1.3 mph 3.5 mph 51 % 0.00 in
03:15 37.7 °F 21.2 °F 30.27 in WNW 2.9 mph 5.0 mph 51 % 0.00 in
03:20 37.6 °F 20.6 °F 30.28 in WNW 2.6 mph 5.8 mph 50 % 0.00 in
03:25 37.6 °F 21.1 °F 30.28 in WNW 3.8 mph 5.8 mph 51 % 0.00 in
03:30 37.6 °F 20.6 °F 30.29 in NNW 1.9 mph 4.6 mph 50 % 0.00 in
03:35 37.7 °F 21.2 °F 30.29 in NNW 1.4 mph 4.6 mph 51 % 0.00 in
03:41 37.7 °F 21.2 °F 30.29 in NNW 0.5 mph 3.5 mph 51 % 0.00 in
03:46 37.6 °F 20.6 °F 30.28 in NNW 0.7 mph 2.3 mph 50 % 0.00 in
03:51 37.6 °F 21.1 °F 30.28 in NNW 0.1 mph 2.3 mph 51 % 0.00 in
03:56 37.5 °F 21.0 °F 30.28 in NNW 0.6 mph 2.3 mph 51 % 0.00 in
04:01 37.5 °F 21.5 °F 30.28 in NNW 0.8 mph 2.0 mph 52 % 0.00 in
04:06 37.3 °F 21.3 °F 30.28 in Calm     52 % 0.00 in
04:11 37.2 °F 21.2 °F 30.28 in Calm     52 % 0.00 in
04:16 37.0 °F 21.4 °F 30.27 in Calm     53 % 0.00 in
04:21 36.8 °F 21.3 °F 30.27 in Calm     53 % 0.00 in
04:26 36.6 °F 21.9 °F 30.27 in NNW 0.3 mph 1.2 mph 55 % 0.00 in
04:32 36.3 °F 21.7 °F 30.28 in Calm   2.3 mph 55 % 0.00 in
04:37 36.0 °F 21.8 °F 30.28 in Calm   1.2 mph 56 % 0.00 in
04:42 35.8 °F 21.6 °F 30.28 in WNW 1.0 mph 3.5 mph 56 % 0.00 in
04:47 35.6 °F 21.4 °F 30.29 in WNW 1.1 mph 2.3 mph 56 % 0.00 in
04:52 35.5 °F 21.3 °F 30.29 in WNW 0.1 mph 1.2 mph 56 % 0.00 in
04:57 35.4 °F 21.2 °F 30.29 in WNW 0.3 mph 3.5 mph 56 % 0.00 in
05:02 35.4 °F 21.2 °F 30.30 in NW 2.7 mph 5.0 mph 56 % 0.00 in
05:07 35.4 °F 21.2 °F 30.30 in West 1.6 mph 3.5 mph 56 % 0.00 in
05:12 35.6 °F 22.3 °F 30.30 in West 2.7 mph 4.6 mph 58 % 0.00 in
05:17 35.7 °F 22.4 °F 30.30 in West 2.0 mph 3.0 mph 58 % 0.00 in
05:23 35.9 °F 22.5 °F 30.30 in West 2.7 mph 4.6 mph 58 % 0.00 in
05:28 36.0 °F 22.6 °F 30.31 in NW 2.5 mph 5.8 mph 58 % 0.00 in
05:33 36.1 °F 22.7 °F 30.31 in WNW 2.5 mph 3.5 mph 58 % 0.00 in
05:38 36.2 °F 22.8 °F 30.31 in West 1.7 mph 3.5 mph 58 % 0.00 in
05:43 36.2 °F 22.8 °F 30.31 in WNW 1.2 mph 2.3 mph 58 % 0.00 in
05:48 36.2 °F 22.8 °F 30.31 in WNW 1.5 mph 3.5 mph 58 % 0.00 in
05:53 36.2 °F 22.8 °F 30.31 in West 1.3 mph 3.5 mph 58 % 0.00 in
06:03 36.3 °F 22.5 °F 30.32 in WNW 2.6 mph 3.5 mph 57 % 0.00 in
06:14 36.4 °F 22.6 °F 30.32 in WNW 0.6 mph 2.3 mph 57 % 0.00 in
06:19 36.4 °F 22.6 °F 30.32 in West 1.3 mph 3.5 mph 57 % 0.00 in
06:29 36.4 °F 22.6 °F 30.32 in WNW 1.8 mph 3.5 mph 57 % 0.00 in
06:34 36.4 °F 23.0 °F 30.32 in WNW 2.9 mph 3.5 mph 58 % 0.00 in
06:39 36.5 °F 23.1 °F 30.32 in West 2.1 mph 4.6 mph 58 % 0.00 in
06:44 36.5 °F 23.5 °F 30.32 in West 1.2 mph 3.0 mph 59 % 0.00 in
06:49 36.5 °F 23.5 °F 30.33 in West 1.4 mph 4.6 mph 59 % 0.00 in
06:54 36.5 °F 23.5 °F 30.33 in West 0.7 mph 2.3 mph 59 % 0.00 in
06:59 36.5 °F 23.9 °F 30.33 in Calm   1.2 mph 60 % 0.00 in
07:05 36.5 °F 23.9 °F 30.33 in West 0.3 mph 1.2 mph 60 % 0.00 in
07:10 36.5 °F 23.9 °F 30.34 in West 0.8 mph 3.5 mph 60 % 0.00 in
07:15 36.5 °F 23.9 °F 30.35 in West 1.2 mph 3.5 mph 60 % 0.00 in
07:20 36.6 °F 23.6 °F 30.35 in WNW 1.0 mph 3.5 mph 59 % 0.00 in
07:25 36.7 °F 23.7 °F 30.34 in WNW 1.0 mph 2.3 mph 59 % 0.00 in
07:30 36.8 °F 24.6 °F 30.35 in WNW 1.2 mph 2.3 mph 61 % 0.00 in
07:35 37.0 °F 25.6 °F 30.35 in WNW 0.5 mph 2.3 mph 63 % 0.00 in
07:40 37.1 °F 26.0 °F 30.35 in West 1.1 mph 3.5 mph 64 % 0.00 in
07:45 37.3 °F 25.8 °F 30.35 in WSW 2.5 mph 3.5 mph 63 % 0.00 in
07:50 37.5 °F 26.0 °F 30.36 in WSW 1.2 mph 3.5 mph 63 % 0.00 in
07:56 37.9 °F 26.0 °F 30.36 in WSW 2.5 mph 3.5 mph 62 % 0.00 in
08:01 38.4 °F 26.1 °F 30.36 in SW 2.8 mph 4.6 mph 61 % 0.00 in
08:06 38.9 °F 25.8 °F 30.36 in SSW 2.4 mph 4.6 mph 59 % 0.00 in
08:11 39.5 °F 25.9 °F 30.36 in WSW 1.9 mph 3.5 mph 58 % 0.00 in
08:16 40.0 °F 26.4 °F 30.36 in West 2.2 mph 3.5 mph 58 % 0.00 in
08:21 40.6 °F 26.5 °F 30.35 in SW 2.3 mph 3.5 mph 57 % 0.00 in
08:26 41.0 °F 26.1 °F 30.36 in SW 0.5 mph 1.2 mph 55 % 0.00 in
08:31 41.5 °F 26.5 °F 30.36 in WNW 3.4 mph 4.6 mph 55 % 0.00 in
08:36 42.0 °F 26.5 °F 30.36 in WSW 1.4 mph 2.0 mph 54 % 0.00 in
08:41 42.5 °F 25.6 °F 30.36 in WSW 1.2 mph 4.6 mph 51 % 0.00 in
08:47 43.0 °F 26.1 °F 30.36 in WSW 1.5 mph 3.5 mph 51 % 0.00 in
08:52 43.5 °F 25.6 °F 30.36 in SW 2.2 mph 3.5 mph 49 % 0.00 in
08:57 44.2 °F 27.7 °F 30.36 in SSW 1.3 mph 3.5 mph 52 % 0.00 in
09:02 44.9 °F 24.8 °F 30.36 in West 0.1 mph 2.3 mph 45 % 0.00 in
09:07 45.3 °F 25.7 °F 30.36 in SW 1.8 mph 3.5 mph 46 % 0.00 in
09:12 45.8 °F 27.2 °F 30.36 in SW 0.3 mph 1.2 mph 48 % 0.00 in
09:17 46.3 °F 25.0 °F 30.36 in West 3.6 mph 4.6 mph 43 % 0.00 in
09:22 46.3 °F 23.9 °F 30.36 in WSW 3.4 mph 5.8 mph 41 % 0.00 in
09:27 46.3 °F 24.4 °F 30.36 in Calm   3.5 mph 42 % 0.00 in
09:33 46.3 °F 23.9 °F 30.36 in NW 1.3 mph 3.5 mph 41 % 0.00 in
09:38 46.5 °F 25.2 °F 30.36 in NW 2.2 mph 4.0 mph 43 % 0.00 in
09:43 46.8 °F 24.3 °F 30.36 in SW 1.4 mph 3.5 mph 41 % 0.00 in
09:48 47.1 °F 23.4 °F 30.36 in West 1.5 mph 3.5 mph 39 % 0.00 in
09:53 47.4 °F 24.9 °F 30.36 in West 1.3 mph 3.5 mph 41 % 0.00 in
09:58 47.9 °F 24.1 °F 30.36 in West 3.1 mph 4.6 mph 39 % 0.00 in
10:03 48.3 °F 22.5 °F 30.36 in SW 1.1 mph 2.3 mph 36 % 0.00 in
10:08 48.6 °F 22.1 °F 30.36 in SW 1.9 mph 3.5 mph 35 % 0.00 in
10:18 48.7 °F 22.2 °F 30.35 in West 2.6 mph 5.8 mph 35 % 0.00 in
10:24 48.6 °F 27.1 °F 30.35 in NNW 3.4 mph 5.8 mph 43 % 0.00 in
10:29 48.4 °F 28.0 °F 30.35 in North 3.3 mph 6.0 mph 45 % 0.00 in
10:39 48.7 °F 28.8 °F 30.35 in NNE 5.3 mph 7.0 mph 46 % 0.00 in
10:44 48.8 °F 30.0 °F 30.35 in NNE 2.6 mph 5.0 mph 48 % 0.00 in
10:49 49.1 °F 27.5 °F 30.35 in NNW 4.1 mph 4.6 mph 43 % 0.00 in
10:54 49.2 °F 27.1 °F 30.35 in NNE 3.1 mph 5.0 mph 42 % 0.00 in
10:59 49.6 °F 28.0 °F 30.35 in North 3.0 mph 4.6 mph 43 % 0.00 in
11:04 50.3 °F 27.5 °F 30.34 in NNE 3.9 mph 6.9 mph 41 % 0.00 in
11:09 50.8 °F 29.1 °F 30.34 in North 2.1 mph 3.5 mph 43 % 0.00 in
11:15 51.3 °F 28.4 °F 30.35 in North 2.6 mph 3.5 mph 41 % 0.00 in
11:20 51.7 °F 24.2 °F 30.34 in NNE 2.1 mph 5.8 mph 34 % 0.00 in
11:25 52.2 °F 29.8 °F 30.34 in North 2.9 mph 3.5 mph 42 % 0.00 in
11:30 52.6 °F 30.1 °F 30.34 in NNE 2.3 mph 4.0 mph 42 % 0.00 in
11:35 52.4 °F 27.5 °F 30.33 in NNE 3.8 mph 4.6 mph 38 % 0.00 in
11:40 52.5 °F 28.2 °F 30.33 in NNE 2.7 mph 4.6 mph 39 % 0.00 in
11:45 53.0 °F 28.0 °F 30.33 in NNE 2.1 mph 5.0 mph 38 % 0.00 in
11:50 53.1 °F 29.4 °F 30.33 in North 3.2 mph 5.8 mph 40 % 0.00 in
11:55 53.5 °F 29.7 °F 30.32 in NNW 3.9 mph 5.8 mph 40 % 0.00 in
12:00 53.1 °F 29.4 °F 30.32 in ENE 3.3 mph 6.9 mph 40 % 0.00 in
12:06 53.1 °F 29.4 °F 30.32 in NNE 3.6 mph 4.6 mph 40 % 0.00 in
12:11 53.5 °F 31.5 °F 30.32 in North 2.7 mph 4.6 mph 43 % 0.00 in
12:16 53.2 °F 28.9 °F 30.32 in NW 2.1 mph 6.9 mph 39 % 0.00 in
12:26 53.6 °F 29.8 °F 30.32 in NNE 2.8 mph 5.8 mph 40 % 0.00 in
12:31 53.8 °F 27.4 °F 30.31 in ENE 4.6 mph 8.0 mph 36 % 0.00 in
12:36 53.5 °F 28.5 °F 30.31 in NNW 3.1 mph 5.8 mph 38 % 0.00 in
12:41 53.5 °F 31.0 °F 30.31 in NNW 3.7 mph 6.0 mph 42 % 0.00 in
12:46 53.1 °F 26.1 °F 30.31 in North 3.8 mph 5.0 mph 35 % 0.00 in
12:51 53.0 °F 30.5 °F 30.31 in NNW 3.6 mph 5.8 mph 42 % 0.00 in
12:57 52.7 °F 29.0 °F 30.31 in NNW 3.9 mph 5.8 mph 40 % 0.00 in
13:02 52.9 °F 29.2 °F 30.31 in North 2.6 mph 4.6 mph 40 % 0.00 in
13:07 53.7 °F 29.9 °F 30.31 in North 5.0 mph 5.8 mph 40 % 0.00 in
13:12 53.7 °F 28.7 °F 30.30 in NW 5.2 mph 6.9 mph 38 % 0.00 in
13:17 53.5 °F 31.0 °F 30.30 in NNW 2.1 mph 3.5 mph 42 % 0.00 in
13:22 54.0 °F 29.6 °F 30.30 in NNE 5.2 mph 6.9 mph 39 % 0.00 in
13:27 54.3 °F 29.2 °F 30.30 in North 4.0 mph 4.6 mph 38 % 0.00 in
13:32 54.4 °F 29.3 °F 30.30 in North 3.5 mph 5.8 mph 38 % 0.00 in
13:37 54.9 °F 29.7 °F 30.29 in NW 2.8 mph 5.0 mph 38 % 0.00 in
13:42 55.0 °F 32.9 °F 30.29 in West 1.9 mph 3.5 mph 43 % 0.00 in
13:48 54.6 °F 29.5 °F 30.29 in ENE 4.2 mph 8.1 mph 38 % 0.00 in
13:53 54.1 °F 29.0 °F 30.29 in NNE 1.0 mph 3.5 mph 38 % 0.00 in
13:58 54.5 °F 28.1 °F 30.29 in SW 3.4 mph 5.8 mph 36 % 0.00 in
14:03 55.0 °F 24.1 °F 30.28 in SSE 4.5 mph 9.2 mph 30 % 0.00 in
14:08 54.5 °F 25.2 °F 30.28 in South 2.7 mph 6.0 mph 32 % 0.00 in
14:13 54.7 °F 24.6 °F 30.28 in South 4.5 mph 9.2 mph 31 % 0.00 in
14:18 55.3 °F 25.1 °F 30.28 in SW 3.5 mph 10.4 mph 31 % 0.00 in
14:23 55.9 °F 26.4 °F 30.28 in South 6.2 mph 10.4 mph 32 % 0.00 in
14:28 56.3 °F 26.0 °F 30.28 in SSW 3.1 mph 5.8 mph 31 % 0.00 in
14:33 56.8 °F 26.5 °F 30.28 in SSW 8.1 mph 10.4 mph 31 % 0.00 in
14:39 56.6 °F 25.5 °F 30.27 in South 6.9 mph 7.0 mph 30 % 0.00 in
14:44 56.1 °F 25.1 °F 30.27 in SSW 2.0 mph 6.9 mph 30 % 0.00 in
14:49 56.2 °F 27.4 °F 30.27 in SSW 5.3 mph 10.0 mph 33 % 0.00 in
14:54 56.2 °F 28.9 °F 30.27 in SSW 3.5 mph 8.1 mph 35 % 0.00 in
14:59 56.1 °F 28.1 °F 30.27 in SSW 5.4 mph 6.9 mph 34 % 0.00 in
15:04 55.9 °F 25.7 °F 30.26 in South 3.7 mph 6.0 mph 31 % 0.00 in
15:09 55.4 °F 28.2 °F 30.27 in SSW 5.2 mph 9.2 mph 35 % 0.00 in
15:19 55.6 °F 26.9 °F 30.26 in WSW 5.8 mph 9.0 mph 33 % 0.00 in
15:24 55.4 °F 27.5 °F 30.26 in South 6.4 mph 11.5 mph 34 % 0.00 in
15:30 55.0 °F 27.8 °F 30.26 in SE 7.2 mph 12.0 mph 35 % 0.00 in
15:35 54.5 °F 27.4 °F 30.26 in South 6.4 mph 10.0 mph 35 % 0.00 in
15:40 54.5 °F 28.7 °F 30.26 in WSW 5.2 mph 11.5 mph 37 % 0.00 in
15:45 54.7 °F 28.9 °F 30.26 in South 5.2 mph 10.4 mph 37 % 0.00 in
15:50 54.8 °F 30.3 °F 30.25 in SSE 7.1 mph 13.8 mph 39 % 0.00 in
15:55 54.6 °F 30.1 °F 30.25 in South 6.4 mph 11.0 mph 39 % 0.00 in
16:00 54.3 °F 29.8 °F 30.25 in South 6.6 mph 10.4 mph 39 % 0.00 in
16:05 54.1 °F 30.3 °F 30.25 in South 7.5 mph 11.5 mph 40 % 0.00 in
16:10 53.6 °F 29.8 °F 30.25 in SE 5.2 mph 11.5 mph 40 % 0.00 in
16:15 53.3 °F 30.8 °F 30.24 in SSE 5.8 mph 9.0 mph 42 % 0.00 in
16:20 53.0 °F 29.9 °F 30.24 in SSW 8.7 mph 11.5 mph 41 % 0.00 in
16:26 52.4 °F 29.4 °F 30.24 in SSW 6.4 mph 7.0 mph 41 % 0.00 in
16:36 51.2 °F 28.9 °F 30.24 in South 4.4 mph 11.5 mph 42 % 0.00 in
16:41 51.1 °F 30.5 °F 30.24 in SSW 6.0 mph 11.5 mph 45 % 0.00 in
16:46 51.2 °F 29.4 °F 30.23 in SW 11.4 mph 13.8 mph 43 % 0.00 in
16:51 51.2 °F 30.0 °F 30.23 in South 9.0 mph 11.5 mph 44 % 0.00 in
16:56 51.2 °F 30.0 °F 30.23 in WSW 7.3 mph 11.5 mph 44 % 0.00 in
17:01 51.1 °F 30.5 °F 30.23 in SW 4.2 mph 12.0 mph 45 % 0.00 in
17:06 50.9 °F 29.7 °F 30.23 in SSW 8.9 mph 16.1 mph 44 % 0.00 in
17:11 50.5 °F 30.5 °F 30.22 in SSE 7.2 mph 10.4 mph 46 % 0.00 in
17:17 49.9 °F 30.5 °F 30.22 in South 7.1 mph 16.1 mph 47 % 0.00 in
17:22 49.7 °F 30.8 °F 30.22 in SSW 5.5 mph 9.2 mph 48 % 0.00 in
17:27 49.4 °F 30.5 °F 30.22 in SSW 7.8 mph 11.5 mph 48 % 0.00 in
17:32 49.0 °F 30.7 °F 30.22 in South 6.3 mph 12.7 mph 49 % 0.00 in
17:37 48.6 °F 30.8 °F 30.22 in SSE 6.9 mph 11.5 mph 50 % 0.00 in
17:42 48.3 °F 30.0 °F 30.21 in South 8.6 mph 17.3 mph 49 % 0.00 in
17:47 48.2 °F 30.9 °F 30.21 in South 4.7 mph 6.9 mph 51 % 0.00 in
17:52 48.0 °F 30.7 °F 30.21 in South 5.0 mph 11.5 mph 51 % 0.00 in
17:57 47.8 °F 31.0 °F 30.21 in South 8.1 mph 15.0 mph 52 % 0.00 in
18:02 47.6 °F 31.3 °F 30.21 in SSW 6.3 mph 11.5 mph 53 % 0.00 in
18:08 47.5 °F 32.1 °F 30.21 in SSW 2.0 mph 4.6 mph 55 % 0.00 in
18:13 47.4 °F 32.5 °F 30.20 in SSW 6.5 mph 8.1 mph 56 % 0.00 in
18:18 47.2 °F 33.2 °F 30.20 in SSW 5.5 mph 11.5 mph 58 % 0.00 in
18:23 47.0 °F 33.4 °F 30.20 in SSW 6.0 mph 9.2 mph 59 % 0.00 in
18:28 46.8 °F 33.6 °F 30.20 in South 5.1 mph 9.2 mph 60 % 0.00 in
18:33 46.6 °F 33.9 °F 30.20 in South 8.3 mph 11.5 mph 61 % 0.00 in
18:38 46.4 °F 34.1 °F 30.20 in South 6.9 mph 9.2 mph 62 % 0.00 in
18:43 46.2 °F 34.3 °F 30.19 in SSE 6.4 mph 11.0 mph 63 % 0.00 in
18:53 45.8 °F 34.3 °F 30.18 in SSW 5.5 mph 11.5 mph 64 % 0.00 in
18:59 45.7 °F 34.2 °F 30.19 in South 4.3 mph 8.1 mph 64 % 0.00 in
19:04 45.5 °F 34.4 °F 30.19 in SSW 2.6 mph 6.9 mph 65 % 0.00 in
19:09 45.4 °F 34.3 °F 30.18 in South 4.1 mph 6.9 mph 65 % 0.00 in
19:14 45.2 °F 34.5 °F 30.19 in South 5.2 mph 6.9 mph 66 % 0.00 in
19:19 45.1 °F 34.8 °F 30.18 in SSW 4.7 mph 6.9 mph 67 % 0.00 in
19:24 45.0 °F 34.7 °F 30.18 in South 6.3 mph 9.0 mph 67 % 0.00 in
19:29 44.8 °F 34.9 °F 30.18 in SW 3.4 mph 5.8 mph 68 % 0.00 in
19:34 44.7 °F 35.1 °F 30.18 in SSW 3.7 mph 8.0 mph 69 % 0.00 in
19:39 44.6 °F 35.1 °F 30.18 in SSW 2.6 mph 5.8 mph 69 % 0.00 in
19:44 44.5 °F 35.0 °F 30.18 in SW 4.4 mph 6.9 mph 69 % 0.00 in
19:50 44.4 °F 35.2 °F 30.18 in SSW 4.8 mph 15.0 mph 70 % 0.00 in
19:55 44.3 °F 35.1 °F 30.18 in SSW 5.2 mph 5.8 mph 70 % 0.00 in
20:00 44.2 °F 35.0 °F 30.18 in WSW 4.1 mph 10.0 mph 70 % 0.00 in
20:05 44.2 °F 35.0 °F 30.18 in SSW 2.6 mph 4.6 mph 70 % 0.00 in
20:10 44.1 °F 34.6 °F 30.18 in SW 6.5 mph 10.4 mph 69 % 0.00 in
20:15 44.0 °F 34.5 °F 30.18 in SW 3.8 mph 7.0 mph 69 % 0.00 in
20:20 44.0 °F 34.5 °F 30.18 in South 6.2 mph 10.4 mph 69 % 0.00 in
20:25 44.0 °F 34.8 °F 30.18 in SSW 6.2 mph 9.2 mph 70 % 0.00 in
20:30 44.0 °F 34.8 °F 30.18 in SSW 4.7 mph 8.1 mph 70 % 0.00 in
20:35 44.0 °F 34.8 °F 30.18 in SSW 6.1 mph 7.0 mph 70 % 0.00 in
20:41 44.0 °F 35.2 °F 30.18 in SSW 4.2 mph 11.5 mph 71 % 0.00 in
20:46 44.0 °F 35.2 °F 30.18 in SSW 3.2 mph 9.2 mph 71 % 0.00 in
20:51 44.0 °F 35.2 °F 30.18 in SSW 3.5 mph 6.9 mph 71 % 0.00 in
20:56 44.0 °F 35.2 °F 30.19 in South 4.6 mph 5.8 mph 71 % 0.00 in
21:01 44.1 °F 35.3 °F 30.19 in SSW 4.5 mph 7.0 mph 71 % 0.00 in
21:06 44.1 °F 35.3 °F 30.19 in SW 2.3 mph 4.6 mph 71 % 0.00 in
21:11 44.1 °F 35.3 °F 30.19 in SSW 4.3 mph 9.2 mph 71 % 0.00 in
21:16 44.1 °F 35.3 °F 30.19 in SSW 3.8 mph 9.2 mph 71 % 0.00 in
21:21 44.2 °F 35.4 °F 30.19 in SSW 3.4 mph 5.8 mph 71 % 0.00 in
21:26 44.2 °F 35.4 °F 30.19 in South 3.9 mph 9.2 mph 71 % 0.00 in
21:32 44.3 °F 35.8 °F 30.18 in SW 4.9 mph 10.4 mph 72 % 0.00 in
21:37 44.3 °F 35.8 °F 30.18 in SSW 5.1 mph 8.1 mph 72 % 0.00 in
21:42 44.4 °F 36.3 °F 30.18 in SSW 4.7 mph 9.2 mph 73 % 0.00 in
21:47 44.4 °F 36.6 °F 30.18 in SSW 7.8 mph 11.5 mph 74 % 0.00 in
21:52 44.5 °F 36.7 °F 30.18 in SW 3.3 mph 5.8 mph 74 % 0.00 in
21:57 44.5 °F 37.1 °F 30.17 in South 4.6 mph 5.8 mph 75 % 0.00 in
22:02 44.5 °F 37.4 °F 30.17 in SSW 5.3 mph 10.0 mph 76 % 0.00 in
22:12 44.5 °F 37.7 °F 30.17 in SSW 5.2 mph 9.2 mph 77 % 0.00 in
22:17 44.5 °F 38.1 °F 30.16 in South 5.2 mph 7.0 mph 78 % 0.00 in
22:23 44.5 °F 38.1 °F 30.15 in South 4.9 mph 10.0 mph 78 % 0.00 in
22:33 44.6 °F 38.5 °F 30.15 in SSE 4.4 mph 10.4 mph 79 % 0.00 in
22:38 44.6 °F 38.5 °F 30.15 in South 4.9 mph 9.0 mph 79 % 0.00 in
22:43 44.6 °F 38.5 °F 30.14 in WSW 7.0 mph 11.5 mph 79 % 0.00 in
22:48 44.7 °F 38.6 °F 30.14 in South 4.5 mph 16.1 mph 79 % 0.00 in
22:53 44.7 °F 38.6 °F 30.14 in SSW 5.4 mph 8.1 mph 79 % 0.00 in
22:58 44.8 °F 38.4 °F 30.14 in SSW 5.1 mph 10.4 mph 78 % 0.00 in
23:03 44.9 °F 38.1 °F 30.14 in SW 6.5 mph 9.2 mph 77 % 0.00 in
23:08 44.9 °F 38.1 °F 30.14 in South 3.7 mph 4.6 mph 77 % 0.00 in
23:14 45.0 °F 38.2 °F 30.14 in SSW 6.3 mph 9.2 mph 77 % 0.00 in
23:19 45.0 °F 37.9 °F 30.13 in South 4.3 mph 12.0 mph 76 % 0.00 in
23:24 45.1 °F 37.6 °F 30.13 in SSW 5.0 mph 10.0 mph 75 % 0.00 in
23:29 45.2 °F 38.1 °F 30.13 in SSW 5.8 mph 8.1 mph 76 % 0.00 in
23:34 45.2 °F 37.7 °F 30.13 in South 5.8 mph 9.2 mph 75 % 0.00 in
23:39 45.3 °F 37.8 °F 30.12 in SSW 3.3 mph 11.0 mph 75 % 0.00 in
23:44 45.3 °F 37.5 °F 30.13 in SSW 6.1 mph 11.0 mph 74 % 0.00 in
23:49 45.4 °F 37.6 °F 30.13 in SSW 3.0 mph 9.2 mph 74 % 0.00 in
23:54 45.4 °F 37.6 °F 30.13 in SW 2.9 mph 11.5 mph 74 % 0.00 in
23:59 45.5 °F 37.7 °F 30.14 in SW 5.2 mph 9.2 mph 74 % 0.00 in
Crab Meadow Weather
Compliments of Weather Underground - 3 mb

Script developed by  Jim McMurry - jmcmurry@mwt.net Adapted for the template by  Wim van der Kuil - Leuven-Template.eu

Recycling: A used aluminum can is recycled and back on the grocery shelf as a new can, in as little as 60 days.